Time;durP1;ratioP1;P1;durP2;ratioP2;P2;SDS_P1;SDS_P2;PMS_P1;PMS_P2;Temp;Humidity;BMP_temperature;BMP_pressure;BME280_temperature;BME280_humidity;BME280_pressure;Samples;Min_cycle;Max_cycle;Signal;HPM_P1;HPM_P2
2023/05/13 00:01:07;;;;;;;13.33;11.33;;;17.30;78.00;;;;;;5045019;28;20854;-66
2023/05/13 00:07:10;;;;;;;13.63;10.50;;;17.40;77.40;;;;;;5046263;28;20260;-65
2023/05/13 00:10:02;;;;;;;11.77;10.07;;;17.30;78.10;;;;;;5045822;28;20197;-64
2023/05/13 00:12:48;;;;;;;12.13;10.17;;;17.20;78.30;;;;;;5039767;28;20190;-63
2023/05/13 00:15:16;;;;;;;12.30;11.10;;;17.20;78.90;;;;;;5045845;28;20187;-65
2023/05/13 00:18:14;;;;;;;15.77;10.90;;;17.40;78.90;;;;;;5071853;28;20590;-66
2023/05/13 00:20:53;;;;;;;17.07;9.50;;;17.50;78.70;;;;;;5046902;28;20275;-63
2023/05/13 00:23:31;;;;;;;16.93;11.40;;;17.60;78.60;;;;;;5045888;28;20183;-66
2023/05/13 00:26:20;;;;;;;15.10;8.80;;;17.80;79.00;;;;;;5039074;28;20194;-65
2023/05/13 00:39:00;;;;;;;8.90;5.57;;;19.60;75.70;;;;;;5045658;28;20297;-68
2023/05/13 00:41:58;;;;;;;9.47;4.97;;;19.80;75.50;;;;;;5048105;28;20187;-66
2023/05/13 00:55:27;;;;;;;8.47;4.27;;;19.70;75.70;;;;;;5048230;28;20265;-66
2023/05/13 00:57:58;;;;;;;13.03;4.50;;;19.50;76.30;;;;;;5049909;28;20194;-65
2023/05/13 01:01:11;;;;;;;8.33;4.10;;;19.50;76.20;;;;;;5058074;28;20199;-64
2023/05/13 01:04:24;;;;;;;10.37;4.73;;;19.50;76.40;;;;;;5050052;28;20290;-68
2023/05/13 01:07:16;;;;;;;8.47;4.53;;;19.60;76.30;;;;;;5044635;28;20187;-66
2023/05/13 01:09:45;;;;;;;7.80;4.33;;;19.70;76.60;;;;;;5050368;28;20227;-66
2023/05/13 01:12:27;;;;;;;11.47;3.73;;;19.90;75.50;;;;;;5047183;28;20186;-64
2023/05/13 01:18:28;;;;;;;8.03;3.63;;;20.50;73.20;;;;;;4970077;28;20278;-64
2023/05/13 01:21:00;;;;;;;7.27;3.17;;;20.60;73.00;;;;;;5046248;28;20724;-68
2023/05/13 01:23:27;;;;;;;7.90;3.00;;;20.80;72.20;;;;;;5048331;28;20212;-67
2023/05/13 01:25:58;;;;;;;15.40;3.57;;;20.50;72.60;;;;;;5046742;28;20242;-66
2023/05/13 01:38:44;;;;;;;7.83;3.00;;;21.30;70.00;;;;;;5047962;28;20206;-63
2023/05/13 01:48:17;;;;;;;8.53;2.67;;;21.50;69.90;;;;;;5044905;28;20269;-64
2023/05/13 01:50:46;;;;;;;9.03;2.57;;;21.90;67.90;;;;;;5051663;28;20196;-64
2023/05/13 01:53:31;;;;;;;8.40;2.30;;;21.90;67.40;;;;;;5051141;28;20273;-63
2023/05/13 02:00:10;;;;;;;9.03;2.23;;;22.40;66.30;;;;;;5050042;28;20237;-65
2023/05/13 02:06:06;;;;;;;8.23;2.07;;;22.70;65.50;;;;;;5046722;28;20249;-65
2023/05/13 02:08:39;;;;;;;7.37;2.00;;;22.80;65.20;;;;;;5047073;28;20220;-65
2023/05/13 02:11:08;;;;;;;8.90;2.40;;;22.80;64.60;;;;;;5050208;28;20179;-67
2023/05/13 02:17:00;;;;;;;8.27;2.57;;;22.80;64.70;;;;;;5051228;28;20231;-67
2023/05/13 02:19:30;;;;;;;9.37;2.53;;;22.80;64.00;;;;;;5047688;28;20192;-63
2023/05/13 02:22:41;;;;;;;8.73;2.27;;;22.80;64.10;;;;;;5048894;28;20283;-63
2023/05/13 02:25:12;;;;;;;7.73;2.10;;;22.70;64.40;;;;;;5052931;28;20234;-64
2023/05/13 02:27:44;;;;;;;5.73;2.07;;;21.90;66.50;;;;;;5046281;28;20314;-63
2023/05/13 02:30:13;;;;;;;8.60;2.70;;;21.30;67.80;;;;;;5050907;28;20242;-62
2023/05/13 02:33:11;;;;;;;10.10;2.87;;;21.00;69.40;;;;;;5051040;28;20203;-62
2023/05/13 02:35:48;;;;;;;5.90;2.43;;;20.60;70.80;;;;;;5049927;28;20184;-62
2023/05/13 02:38:30;;;;;;;8.73;2.37;;;20.40;71.30;;;;;;5051166;28;20272;-67
2023/05/13 02:41:14;;;;;;;7.70;2.10;;;20.20;72.00;;;;;;5049547;28;20227;-64
2023/05/13 02:44:09;;;;;;;9.87;2.73;;;20.10;72.60;;;;;;5050695;28;20195;-68
2023/05/13 02:46:43;;;;;;;7.60;2.50;;;20.20;73.00;;;;;;5049617;28;20477;-68
2023/05/13 02:49:17;;;;;;;5.87;2.43;;;20.70;72.00;;;;;;5051139;28;20703;-64
2023/05/13 02:55:28;;;;;;;7.33;2.67;;;20.80;71.20;;;;;;5048335;28;20563;-64
2023/05/13 02:58:11;;;;;;;7.00;2.40;;;20.70;71.60;;;;;;5052541;28;20200;-65
2023/05/13 03:04:20;;;;;;;9.17;2.80;;;20.70;71.70;;;;;;5050231;28;20666;-68
2023/05/13 03:07:08;;;;;;;7.63;2.50;;;20.70;71.30;;;;;;5049302;28;20199;-69
2023/05/13 03:10:10;;;;;;;8.40;2.90;;;20.80;71.40;;;;;;5046807;28;20678;-68
2023/05/13 03:12:56;;;;;;;7.07;2.67;;;20.80;71.80;;;;;;5061662;28;20199;-68
2023/05/13 03:15:35;;;;;;;5.67;2.33;;;20.70;71.80;;;;;;5044332;28;20219;-68
2023/05/13 03:18:06;;;;;;;5.40;2.17;;;20.70;71.70;;;;;;5044869;28;20223;-65
2023/05/13 03:20:41;;;;;;;9.77;2.67;;;20.50;72.10;;;;;;5048261;28;20168;-63
2023/05/13 03:23:16;;;;;;;6.77;2.70;;;20.50;72.60;;;;;;5052106;28;20257;-67
2023/05/13 03:25:51;;;;;;;4.93;2.40;;;20.30;72.50;;;;;;5046819;28;20535;-63
2023/05/13 03:31:40;;;;;;;4.17;2.20;;;20.20;73.50;;;;;;5046944;28;20183;-67
2023/05/13 03:34:54;;;;;;;8.33;2.47;;;20.10;73.90;;;;;;5049457;28;20196;-68
2023/05/13 03:37:45;;;;;;;6.50;2.83;;;20.10;74.10;;;;;;5043971;28;20234;-67
2023/05/13 03:40:59;;;;;;;8.27;2.50;;;20.10;73.70;;;;;;5048882;28;20211;-68
2023/05/13 03:43:55;;;;;;;8.27;2.53;;;20.20;72.20;;;;;;5046110;28;21050;-67
2023/05/13 03:46:42;;;;;;;3.23;1.90;;;20.40;69.80;;;;;;5047753;28;20266;-68
2023/05/13 03:49:28;;;;;;;9.40;1.97;;;20.50;66.10;;;;;;5032927;28;20219;-67
2023/05/13 03:51:55;;;;;;;6.73;2.53;;;20.60;64.50;;;;;;5043879;28;20199;-68
2023/05/13 03:54:27;;;;;;;7.60;1.93;;;20.80;61.80;;;;;;5043331;28;20257;-67
2023/05/13 03:57:13;;;;;;;9.30;2.10;;;21.50;59.80;;;;;;5048971;28;20192;-68
2023/05/13 03:59:40;;;;;;;5.07;2.00;;;21.60;57.00;;;;;;5048451;28;20172;-67
2023/05/13 04:02:23;;;;;;;4.43;1.80;;;21.50;56.20;;;;;;5050410;28;20195;-66
2023/05/13 04:08:14;;;;;;;5.90;1.97;;;21.20;58.60;;;;;;5053893;28;20245;-68
2023/05/13 04:10:48;;;;;;;8.00;1.60;;;21.10;58.60;;;;;;5071653;28;20715;-66
2023/05/13 04:13:55;;;;;;;5.23;2.00;;;20.80;58.80;;;;;;5071706;28;20285;-65
2023/05/13 04:27:21;;;;;;;6.97;2.10;;;20.10;64.10;;;;;;5071427;28;20190;-67
2023/05/13 04:30:13;;;;;;;7.30;2.20;;;19.80;68.10;;;;;;5071619;28;20253;-66
2023/05/13 04:36:02;;;;;;;3.57;2.10;;;19.80;70.10;;;;;;5067389;28;20229;-64
2023/05/13 04:38:40;;;;;;;10.40;2.00;;;19.70;70.80;;;;;;5069599;28;20187;-65
2023/05/13 04:41:36;;;;;;;8.67;2.40;;;19.50;71.00;;;;;;5055809;28;20195;-68
2023/05/13 04:44:33;;;;;;;5.23;2.20;;;19.50;71.20;;;;;;5065669;28;20653;-67
2023/05/13 04:47:15;;;;;;;6.73;2.07;;;19.30;69.30;;;;;;5070572;28;20614;-66
2023/05/13 04:49:49;;;;;;;5.33;1.90;;;19.30;69.00;;;;;;5068274;28;20204;-65
2023/05/13 04:53:00;;;;;;;6.57;1.70;;;19.30;68.70;;;;;;5068821;28;20187;-67
2023/05/13 04:55:33;;;;;;;6.10;2.10;;;19.30;68.70;;;;;;5053277;28;20230;-66
2023/05/13 04:58:09;;;;;;;8.03;2.73;;;19.30;68.80;;;;;;5053679;28;20220;-67
2023/05/13 05:00:49;;;;;;;8.77;3.20;;;19.30;68.90;;;;;;5050322;28;20203;-64
2023/05/13 05:03:22;;;;;;;8.70;2.10;;;19.30;68.90;;;;;;5050069;28;20231;-66
2023/05/13 05:05:51;;;;;;;6.13;2.40;;;19.30;69.20;;;;;;5052946;28;20191;-65
2023/05/13 05:08:20;;;;;;;5.20;2.37;;;19.30;69.20;;;;;;5046878;28;20220;-66
2023/05/13 05:11:09;;;;;;;10.70;2.30;;;19.30;69.60;;;;;;5049403;28;20191;-63
2023/05/13 05:13:47;;;;;;;6.13;2.40;;;19.30;69.30;;;;;;5062060;28;20224;-66
2023/05/13 05:16:41;;;;;;;5.57;2.33;;;19.20;69.60;;;;;;5045630;28;20183;-64
2023/05/13 05:19:31;;;;;;;5.43;2.40;;;19.20;70.10;;;;;;5053896;28;20241;-65
2023/05/13 05:22:27;;;;;;;9.23;2.50;;;19.20;70.40;;;;;;5045599;28;20317;-64
2023/05/13 05:28:31;;;;;;;6.30;2.10;;;19.20;72.20;;;;;;5051481;28;20231;-67
2023/05/13 05:31:10;;;;;;;6.33;2.63;;;19.20;72.60;;;;;;5054089;28;20275;-64
2023/05/13 05:37:29;;;;;;;7.13;2.60;;;19.20;73.60;;;;;;5048491;28;20194;-65
2023/05/13 05:43:44;;;;;;;7.40;2.40;;;19.20;74.30;;;;;;5052433;28;20278;-64
2023/05/13 05:46:16;;;;;;;10.03;2.77;;;19.10;74.70;;;;;;5047415;28;20227;-65
2023/05/13 05:58:51;;;;;;;8.60;4.00;;;19.10;75.70;;;;;;5051176;28;20549;-63
2023/05/13 06:01:35;;;;;;;4.63;2.17;;;19.20;75.70;;;;;;5050144;28;20195;-65
2023/05/13 06:04:16;;;;;;;11.13;3.13;;;19.20;75.40;;;;;;5051741;28;20612;-65
2023/05/13 06:10:09;;;;;;;8.53;2.93;;;19.00;74.80;;;;;;5052245;28;20358;-64
2023/05/13 06:12:43;;;;;;;7.37;3.03;;;19.00;74.80;;;;;;5050596;28;20183;-64
2023/05/13 06:15:15;;;;;;;5.87;3.10;;;19.00;74.80;;;;;;5046011;28;20334;-64
2023/05/13 06:17:43;;;;;;;8.60;3.60;;;19.00;74.50;;;;;;5050477;28;20196;-63
2023/05/13 06:20:25;;;;;;;5.77;2.33;;;19.00;74.20;;;;;;5047954;28;20299;-67
2023/05/13 06:23:04;;;;;;;5.87;2.50;;;19.00;74.00;;;;;;5048205;28;20261;-65
2023/05/13 06:29:19;;;;;;;7.73;2.20;;;18.90;74.20;;;;;;5045246;28;20353;-68
2023/05/13 06:31:51;;;;;;;6.13;2.20;;;19.00;74.10;;;;;;5045291;28;20191;-66
2023/05/13 06:34:20;;;;;;;6.50;2.27;;;19.00;74.10;;;;;;5046687;28;20180;-65
2023/05/13 06:40:12;;;;;;;7.17;2.67;;;19.00;74.00;;;;;;5050857;28;20207;-64
2023/05/13 06:42:39;;;;;;;4.07;2.50;;;18.90;73.90;;;;;;5049350;28;20186;-65
2023/05/13 06:45:31;;;;;;;5.30;2.50;;;19.00;74.00;;;;;;5050289;28;20192;-65
2023/05/13 06:48:13;;;;;;;6.13;2.30;;;18.90;74.20;;;;;;5049240;28;20685;-68
2023/05/13 06:51:09;;;;;;;6.27;2.50;;;18.90;74.30;;;;;;5050662;28;20195;-65
2023/05/13 06:57:00;;;;;;;6.07;2.47;;;18.80;74.40;;;;;;5050156;28;20246;-65
2023/05/13 07:00:16;;;;;;;6.50;2.43;;;18.80;74.60;;;;;;5050780;28;20576;-65
2023/05/13 07:06:10;;;;;;;10.13;2.40;;;18.60;74.90;;;;;;5048706;28;20242;-65
2023/05/13 07:08:46;;;;;;;9.80;2.50;;;18.60;75.20;;;;;;5048760;28;21458;-66
2023/05/13 07:11:19;;;;;;;9.33;2.77;;;18.50;75.30;;;;;;5044589;28;20195;-64
2023/05/13 07:14:17;;;;;;;7.67;2.70;;;18.50;75.50;;;;;;5049359;28;20184;-63
2023/05/13 07:16:53;;;;;;;7.47;2.53;;;18.40;75.70;;;;;;5046714;28;20188;-64
2023/05/13 07:26:14;;;;;;;3.47;2.10;;;18.30;75.90;;;;;;4074822;28;20277;-64
2023/05/13 07:28:47;;;;;;;8.00;2.43;;;18.30;76.00;;;;;;5050270;28;20618;-66
2023/05/13 07:34:41;;;;;;;11.07;2.90;;;18.10;76.40;;;;;;5047946;28;20194;-65
2023/05/13 07:37:08;;;;;;;5.10;2.13;;;18.00;76.60;;;;;;5049697;28;20188;-64
2023/05/13 07:39:47;;;;;;;3.63;2.50;;;17.90;76.60;;;;;;5049010;28;20242;-66
2023/05/13 07:42:54;;;;;;;8.00;3.70;;;17.80;76.80;;;;;;5044835;28;20184;-64
2023/05/13 07:45:21;;;;;;;7.67;4.60;;;17.80;77.10;;;;;;5046928;28;20272;-67
2023/05/13 07:51:11;;;;;;;12.00;6.23;;;17.60;77.50;;;;;;5046787;28;20187;-67
2023/05/13 07:54:07;;;;;;;8.23;4.63;;;17.60;77.80;;;;;;5045519;28;20172;-65
2023/05/13 07:56:48;;;;;;;6.07;3.73;;;17.50;78.00;;;;;;5046476;28;20187;-65
2023/05/13 07:59:46;;;;;;;10.63;3.77;;;17.40;78.70;;;;;;5046934;28;20223;-67
2023/05/13 08:02:19;;;;;;;9.60;3.87;;;17.40;78.80;;;;;;5046155;28;20186;-65
2023/05/13 08:04:54;;;;;;;8.03;4.60;;;17.30;79.10;;;;;;5045868;28;20238;-66
2023/05/13 08:07:22;;;;;;;11.17;4.40;;;17.30;79.30;;;;;;5049838;28;20195;-67
2023/05/13 08:09:56;;;;;;;8.03;3.63;;;17.30;79.50;;;;;;5049843;28;20658;-63
2023/05/13 08:12:25;;;;;;;9.03;3.30;;;17.20;79.50;;;;;;5049667;28;20181;-67
2023/05/13 08:15:06;;;;;;;8.37;3.50;;;17.20;80.00;;;;;;5045859;28;20222;-64
2023/05/13 08:17:57;;;;;;;6.00;3.10;;;17.10;80.00;;;;;;5042979;28;20203;-66
2023/05/13 08:20:55;;;;;;;11.27;3.97;;;17.00;80.20;;;;;;5042200;28;20547;-67
2023/05/13 08:26:46;;;;;;;9.53;5.50;;;17.00;80.50;;;;;;3413289;28;22225;-66
2023/05/13 08:32:42;;;;;;;11.17;7.10;;;17.00;81.20;;;;;;5043958;28;21861;-65
2023/05/13 08:35:21;;;;;;;13.27;6.67;;;16.90;81.20;;;;;;5060779;28;20261;-65
2023/05/13 08:37:55;;;;;;;12.13;7.10;;;16.80;81.30;;;;;;5044153;28;20196;-64
2023/05/13 08:44:27;;;;;;;13.00;6.27;;;16.80;81.40;;;;;;5035354;28;20242;-64
2023/05/13 08:47:18;;;;;;;12.67;5.83;;;16.80;81.50;;;;;;5047502;28;20676;-64
2023/05/13 08:49:51;;;;;;;14.97;6.00;;;16.70;81.40;;;;;;5047640;28;20675;-64
2023/05/13 08:52:28;;;;;;;8.60;5.70;;;16.70;81.70;;;;;;5048206;28;20328;-64
2023/05/13 08:58:24;;;;;;;10.70;5.57;;;16.60;81.70;;;;;;5046433;28;20736;-65
2023/05/13 09:00:56;;;;;;;9.07;5.67;;;16.70;82.00;;;;;;5050441;28;20266;-63
2023/05/13 09:03:36;;;;;;;11.33;5.70;;;16.60;81.90;;;;;;5052815;28;20191;-68
2023/05/13 09:09:58;;;;;;;14.77;7.10;;;16.60;82.20;;;;;;5042658;28;20234;-67
2023/05/13 09:15:01;;;;;;;12.93;7.17;;;16.80;82.50;;;;;;5014578;22;20324;-69
2023/05/13 09:17:30;;;;;;;11.57;6.57;;;16.80;82.40;;;;;;5008472;28;20281;-68
2023/05/13 09:20:06;;;;;;;14.10;7.40;;;16.90;82.30;;;;;;5008445;28;20200;-68
2023/05/13 09:22:33;;;;;;;9.03;6.30;;;17.00;82.30;;;;;;5005076;28;20178;-68
2023/05/13 09:25:00;;;;;;;8.93;5.83;;;17.10;82.00;;;;;;5003016;28;20195;-68
2023/05/13 09:27:37;;;;;;;10.13;6.13;;;17.20;81.90;;;;;;5005022;28;20221;-68
2023/05/13 09:30:05;;;;;;;10.90;4.97;;;17.20;81.80;;;;;;5004027;28;21505;-68
2023/05/13 09:32:33;;;;;;;8.63;4.67;;;17.30;81.20;;;;;;5012229;28;20311;-65
2023/05/13 09:35:17;;;;;;;8.57;4.80;;;17.30;80.90;;;;;;5007584;28;20193;-67
2023/05/13 09:37:46;;;;;;;6.43;3.87;;;17.30;80.70;;;;;;5002363;28;20215;-69
2023/05/13 09:40:18;;;;;;;7.53;4.77;;;17.40;80.70;;;;;;5004527;28;20186;-67
2023/05/13 09:42:46;;;;;;;9.57;4.10;;;17.40;80.80;;;;;;5006889;28;20269;-67
2023/05/13 09:45:15;;;;;;;8.27;4.20;;;17.50;81.10;;;;;;5007517;28;20251;-64
2023/05/13 09:47:43;;;;;;;9.50;4.43;;;17.50;81.30;;;;;;5003685;28;20208;-69
2023/05/13 09:50:12;;;;;;;11.27;6.47;;;17.50;81.60;;;;;;5006071;28;20205;-70
2023/05/13 09:52:39;;;;;;;20.70;10.87;;;17.50;82.00;;;;;;5000531;28;20193;-70
2023/05/13 09:55:09;;;;;;;20.93;12.93;;;17.40;82.30;;;;;;5002995;28;20201;-68
2023/05/13 09:57:37;;;;;;;23.27;14.70;;;17.40;82.70;;;;;;5006091;28;20651;-67
2023/05/13 10:00:06;;;;;;;26.80;17.40;;;17.30;83.20;;;;;;5002032;28;20186;-68
2023/05/13 10:02:35;;;;;;;29.43;18.93;;;17.30;83.40;;;;;;5001208;28;20215;-68
2023/05/13 10:05:02;;;;;;;35.53;23.10;;;17.20;83.90;;;;;;5004939;28;20439;-67
2023/05/13 10:07:33;;;;;;;27.07;17.27;;;17.30;84.40;;;;;;5006219;28;20181;-69
2023/05/13 10:10:06;;;;;;;18.07;10.90;;;17.20;84.70;;;;;;5003577;28;20659;-67
2023/05/13 10:12:35;;;;;;;20.57;11.17;;;17.20;84.80;;;;;;5005453;28;20208;-67
2023/05/13 10:15:04;;;;;;;18.43;10.27;;;17.20;85.10;;;;;;5002553;28;20241;-68
2023/05/13 10:17:32;;;;;;;14.83;8.90;;;17.20;85.20;;;;;;5004908;28;20270;-68
2023/05/13 10:20:00;;;;;;;14.63;9.13;;;17.20;85.40;;;;;;5005435;28;20206;-70
2023/05/13 10:22:33;;;;;;;15.97;9.93;;;17.20;85.40;;;;;;5006008;28;20189;-69
2023/05/13 10:25:03;;;;;;;16.93;9.60;;;17.10;85.60;;;;;;5004925;28;20204;-68
2023/05/13 10:27:34;;;;;;;17.30;10.40;;;17.00;85.70;;;;;;5009275;28;20195;-67
2023/05/13 10:30:08;;;;;;;17.23;8.83;;;17.00;85.90;;;;;;5002979;28;20763;-70
2023/05/13 10:32:38;;;;;;;15.73;8.53;;;17.00;86.00;;;;;;5003110;28;20224;-69
2023/05/13 10:35:12;;;;;;;16.37;9.13;;;16.90;86.10;;;;;;5004232;28;20647;-64
2023/05/13 10:38:03;;;;;;;14.70;9.27;;;16.80;86.20;;;;;;5006693;28;20191;-66
2023/05/13 10:40:58;;;;;;;16.10;9.17;;;16.80;86.40;;;;;;5003390;28;20199;-70
2023/05/13 10:43:31;;;;;;;16.70;9.40;;;16.80;86.30;;;;;;5005156;28;20196;-67
2023/05/13 10:46:03;;;;;;;17.67;9.97;;;16.80;86.40;;;;;;5005464;28;20195;-69
2023/05/13 10:48:50;;;;;;;11.50;7.90;;;16.70;86.50;;;;;;5001642;28;20269;-67
2023/05/13 10:51:22;;;;;;;14.07;9.33;;;16.70;86.60;;;;;;5004508;28;20759;-69
2023/05/13 10:53:55;;;;;;;14.73;7.57;;;16.60;86.60;;;;;;5002107;28;20265;-66
2023/05/13 10:56:27;;;;;;;10.33;8.53;;;16.60;86.70;;;;;;5003655;28;20184;-69
2023/05/13 10:59:12;;;;;;;16.40;8.87;;;16.50;86.90;;;;;;5001049;28;20192;-69
2023/05/13 11:01:44;;;;;;;15.10;9.83;;;16.50;87.10;;;;;;5003332;28;20177;-67
2023/05/13 11:04:16;;;;;;;16.30;10.63;;;16.50;87.30;;;;;;5002499;28;20592;-69
2023/05/13 11:06:46;;;;;;;16.73;11.73;;;16.40;87.50;;;;;;5001547;28;20188;-69
2023/05/13 11:09:22;;;;;;;16.63;11.70;;;16.40;87.70;;;;;;4999102;28;20257;-68
2023/05/13 11:12:15;;;;;;;18.50;10.50;;;16.40;88.00;;;;;;5002779;28;20184;-65
2023/05/13 11:14:43;;;;;;;13.90;10.33;;;16.40;88.30;;;;;;4999036;28;21608;-69
2023/05/13 11:17:12;;;;;;;16.90;10.90;;;16.40;88.40;;;;;;5008482;28;20247;-66
2023/05/13 11:19:45;;;;;;;17.67;12.03;;;16.40;88.50;;;;;;4997724;28;20188;-70
2023/05/13 11:22:15;;;;;;;15.77;14.23;;;16.40;88.60;;;;;;5003181;28;20197;-67
2023/05/13 11:24:46;;;;;;;16.23;14.60;;;16.40;88.60;;;;;;5001482;28;20193;-70
2023/05/13 11:27:20;;;;;;;17.57;14.17;;;16.40;88.70;;;;;;5002875;28;20188;-67
2023/05/13 11:29:53;;;;;;;19.20;13.70;;;16.40;88.60;;;;;;5004590;28;20213;-67
2023/05/13 11:32:52;;;;;;;14.80;13.40;;;16.40;88.60;;;;;;5002425;28;20592;-65
2023/05/13 11:35:26;;;;;;;14.13;12.90;;;16.30;88.70;;;;;;5004301;28;20226;-66
2023/05/13 11:37:58;;;;;;;15.73;14.10;;;16.50;88.80;;;;;;5002962;28;20191;-69
2023/05/13 11:40:27;;;;;;;20.67;13.80;;;16.40;88.50;;;;;;5002836;28;20292;-64
2023/05/13 11:42:55;;;;;;;14.40;13.10;;;16.30;88.70;;;;;;5002980;28;20330;-67
2023/05/13 11:45:24;;;;;;;17.20;15.50;;;16.30;88.70;;;;;;5002801;28;20193;-69
2023/05/13 11:47:52;;;;;;;21.00;18.80;;;16.30;88.80;;;;;;5002237;28;20247;-67
2023/05/13 11:50:20;;;;;;;22.10;20.10;;;16.30;88.80;;;;;;5000601;28;20194;-69
2023/05/13 11:53:01;;;;;;;24.67;22.53;;;16.20;89.00;;;;;;5003038;28;20199;-69
2023/05/13 11:55:30;;;;;;;24.83;22.67;;;16.20;88.90;;;;;;5001523;28;20201;-66
2023/05/13 11:57:59;;;;;;;27.80;25.13;;;16.10;89.20;;;;;;5002388;28;20197;-68
2023/05/13 12:00:31;;;;;;;29.23;26.77;;;16.00;89.20;;;;;;5001127;28;20192;-66
2023/05/13 12:03:00;;;;;;;30.50;28.20;;;16.00;89.50;;;;;;4998254;28;20197;-68
2023/05/13 12:05:27;;;;;;;33.33;30.77;;;15.90;89.60;;;;;;5004216;28;20184;-66
2023/05/13 12:07:58;;;;;;;32.50;29.80;;;15.90;89.60;;;;;;5002583;28;20208;-64
2023/05/13 12:10:26;;;;;;;35.87;33.00;;;15.80;89.60;;;;;;5002652;28;20364;-67
2023/05/13 12:12:54;;;;;;;38.50;34.90;;;15.80;89.70;;;;;;5004064;28;20203;-67
2023/05/13 12:15:22;;;;;;;42.20;38.53;;;15.70;89.90;;;;;;5002626;28;20279;-68
2023/05/13 12:17:50;;;;;;;46.10;42.27;;;15.70;90.00;;;;;;5002396;28;20610;-65
2023/05/13 12:20:22;;;;;;;48.77;44.87;;;15.70;90.20;;;;;;5001073;28;20181;-66
2023/05/13 12:22:51;;;;;;;51.57;47.67;;;15.60;90.20;;;;;;4999164;28;20183;-69
2023/05/13 12:25:43;;;;;;;53.03;49.17;;;15.50;90.30;;;;;;5001381;28;20197;-67
2023/05/13 12:28:24;;;;;;;55.80;51.77;;;15.50;90.40;;;;;;5006507;28;20248;-67
2023/05/13 12:30:56;;;;;;;58.70;54.57;;;15.40;90.40;;;;;;5005375;28;20232;-66
2023/05/13 12:33:27;;;;;;;61.60;57.27;;;15.30;90.40;;;;;;5007463;28;20192;-66
2023/05/13 12:36:14;;;;;;;68.10;63.63;;;15.30;90.40;;;;;;5006997;28;20189;-68
2023/05/13 12:38:54;;;;;;;82.87;77.13;;;15.30;90.80;;;;;;5003606;28;20647;-64
2023/05/13 12:41:24;;;;;;;86.87;80.90;;;15.30;91.00;;;;;;5009732;28;20189;-65
2023/05/13 12:43:59;;;;;;;98.50;92.33;;;15.30;91.20;;;;;;5008032;28;20196;-64
2023/05/13 12:46:27;;;;;;;102.30;96.03;;;15.20;91.30;;;;;;5007339;28;20219;-68
2023/05/13 12:49:00;;;;;;;109.67;103.07;;;15.20;91.30;;;;;;5002893;28;20209;-67
2023/05/13 12:51:34;;;;;;;101.33;95.23;;;15.20;91.50;;;;;;5009767;28;20235;-64
2023/05/13 12:54:01;;;;;;;98.33;92.40;;;15.10;91.50;;;;;;5004253;28;20181;-68
2023/05/13 12:56:28;;;;;;;115.23;108.57;;;15.00;91.60;;;;;;5007459;28;20196;-67
2023/05/13 12:58:57;;;;;;;110.23;103.83;;;15.00;91.60;;;;;;5004932;28;20177;-64
2023/05/13 13:01:24;;;;;;;128.57;121.17;;;15.00;91.60;;;;;;5005682;28;20621;-66
2023/05/13 13:03:51;;;;;;;131.27;123.77;;;14.90;91.70;;;;;;5005356;28;20217;-67
2023/05/13 13:06:19;;;;;;;135.73;128.00;;;14.90;91.70;;;;;;5005349;28;20546;-67
2023/05/13 13:08:46;;;;;;;141.50;133.70;;;14.90;91.80;;;;;;5007786;28;20213;-67
2023/05/13 13:11:17;;;;;;;162.23;153.07;;;14.80;91.90;;;;;;5005652;28;20632;-65
2023/05/13 13:13:49;;;;;;;158.97;149.90;;;14.80;91.90;;;;;;5001315;28;21164;-63
2023/05/13 13:16:16;;;;;;;159.97;151.17;;;14.80;92.00;;;;;;5005182;28;20299;-65
2023/05/13 13:18:44;;;;;;;171.10;161.83;;;14.80;92.10;;;;;;5004550;28;20207;-67
2023/05/13 13:21:11;;;;;;;177.17;167.23;;;14.80;92.10;;;;;;5003450;28;20188;-65
2023/05/13 13:23:39;;;;;;;187.00;176.93;;;14.80;92.20;;;;;;5006009;28;20535;-64
2023/05/13 13:26:06;;;;;;;178.97;169.10;;;14.70;92.20;;;;;;5004567;28;20186;-64
2023/05/13 13:28:34;;;;;;;171.97;162.43;;;14.70;92.30;;;;;;5006406;28;20570;-64
2023/05/13 13:31:01;;;;;;;167.33;158.17;;;14.70;92.30;;;;;;5008450;28;20197;-64
2023/05/13 13:33:28;;;;;;;169.53;160.17;;;14.70;92.30;;;;;;5001979;28;20586;-63
2023/05/13 13:35:56;;;;;;;171.37;161.83;;;14.60;92.40;;;;;;5008302;28;20602;-64
2023/05/13 13:38:23;;;;;;;192.00;181.70;;;14.60;92.40;;;;;;5004773;28;20217;-62
2023/05/13 13:40:50;;;;;;;119.97;113.30;;;14.50;92.40;;;;;;5000823;28;20662;-65
2023/05/13 13:43:18;;;;;;;36.23;33.33;;;14.50;92.40;;;;;;5002528;28;20675;-64
2023/05/13 13:45:45;;;;;;;34.40;31.30;;;14.50;92.40;;;;;;5003540;28;20229;-67
2023/05/13 13:48:13;;;;;;;34.00;30.90;;;14.50;92.40;;;;;;5002567;28;20547;-66
2023/05/13 13:50:41;;;;;;;125.73;118.73;;;14.40;92.40;;;;;;5006251;28;20198;-66
2023/05/13 13:53:08;;;;;;;218.27;206.77;;;14.40;92.40;;;;;;5000124;28;20193;-66
2023/05/13 13:55:35;;;;;;;225.07;213.57;;;14.30;92.40;;;;;;5006064;28;20272;-67
2023/05/13 13:58:03;;;;;;;207.57;196.67;;;14.30;92.40;;;;;;5004546;28;20274;-67
2023/05/13 14:00:30;;;;;;;211.77;200.50;;;14.30;92.30;;;;;;5006531;28;20558;-67
2023/05/13 14:02:57;;;;;;;214.93;203.63;;;14.20;92.30;;;;;;5008469;28;20187;-69
2023/05/13 14:05:25;;;;;;;203.37;191.97;;;14.20;92.40;;;;;;5004164;28;20177;-67
2023/05/13 14:07:54;;;;;;;218.07;206.67;;;14.20;92.40;;;;;;5005882;28;20217;-67
2023/05/13 14:10:21;;;;;;;205.17;194.37;;;14.20;92.40;;;;;;5006194;28;20266;-69
2023/05/13 14:12:49;;;;;;;222.37;210.77;;;14.20;92.40;;;;;;5002574;28;20775;-69
2023/05/13 14:15:16;;;;;;;216.77;205.47;;;14.20;92.30;;;;;;5002945;28;20229;-68
2023/05/13 14:17:44;;;;;;;219.57;208.00;;;14.20;92.40;;;;;;5009051;28;20193;-64
2023/05/13 14:20:11;;;;;;;220.50;208.73;;;14.10;92.40;;;;;;5007297;28;20188;-67
2023/05/13 14:22:38;;;;;;;215.43;204.27;;;14.20;92.50;;;;;;5008388;28;20216;-67
2023/05/13 14:25:08;;;;;;;212.27;201.23;;;14.10;92.40;;;;;;5005364;28;20213;-64
2023/05/13 14:27:36;;;;;;;197.43;186.87;;;14.10;92.40;;;;;;5004480;28;20185;-63
2023/05/13 14:30:05;;;;;;;207.60;196.73;;;14.10;92.40;;;;;;5007560;28;20272;-63
2023/05/13 14:32:33;;;;;;;210.00;198.90;;;14.00;92.40;;;;;;5008875;28;20185;-64
2023/05/13 14:35:00;;;;;;;226.53;214.70;;;14.00;92.40;;;;;;5005665;28;20586;-64
2023/05/13 14:37:28;;;;;;;246.93;234.13;;;14.00;92.40;;;;;;5004012;28;20244;-63
2023/05/13 14:39:56;;;;;;;241.17;228.60;;;14.00;92.40;;;;;;5011846;28;20609;-64
2023/05/13 14:42:23;;;;;;;277.07;263.00;;;14.00;92.40;;;;;;5007885;28;20592;-65
2023/05/13 14:44:50;;;;;;;260.10;246.93;;;13.90;92.40;;;;;;5003177;28;20210;-63
2023/05/13 14:47:18;;;;;;;256.27;243.13;;;13.90;92.50;;;;;;5002974;28;20193;-67
2023/05/13 14:49:45;;;;;;;232.60;220.77;;;13.90;92.60;;;;;;5002130;28;20267;-65
2023/05/13 14:52:13;;;;;;;242.47;230.03;;;13.90;92.60;;;;;;5008038;28;20193;-63
2023/05/13 14:54:40;;;;;;;234.57;222.30;;;13.90;92.60;;;;;;5004867;28;20201;-67
2023/05/13 14:57:08;;;;;;;250.43;237.63;;;13.90;92.90;;;;;;5004137;28;20927;-67
2023/05/13 14:59:35;;;;;;;242.90;230.33;;;14.00;92.80;;;;;;5003434;28;20293;-62
2023/05/13 15:02:03;;;;;;;239.70;227.10;;;14.00;92.90;;;;;;5005494;28;20675;-68
2023/05/13 15:04:34;;;;;;;250.40;237.17;;;14.10;92.90;;;;;;5008627;28;20185;-62
2023/05/13 15:07:02;;;;;;;245.63;232.90;;;14.10;92.80;;;;;;5004626;28;20208;-63
2023/05/13 15:09:29;;;;;;;254.13;240.40;;;14.20;92.70;;;;;;5008885;28;20713;-67
2023/05/13 15:11:57;;;;;;;272.60;258.47;;;14.20;92.60;;;;;;5004137;28;20188;-65
2023/05/13 15:14:24;;;;;;;282.97;268.77;;;14.30;92.70;;;;;;5005420;28;20181;-65
2023/05/13 15:16:52;;;;;;;295.17;280.30;;;14.30;92.80;;;;;;5004735;28;20781;-66
2023/05/13 15:19:20;;;;;;;300.03;285.00;;;14.30;92.80;;;;;;5005220;28;20192;-66
2023/05/13 15:21:47;;;;;;;308.10;292.70;;;14.30;92.70;;;;;;5003398;28;20559;-68
2023/05/13 15:24:14;;;;;;;337.23;320.03;;;14.30;92.80;;;;;;5001755;28;20645;-66
2023/05/13 15:26:42;;;;;;;351.40;333.33;;;14.30;92.70;;;;;;5005956;28;20174;-68
2023/05/13 15:29:09;;;;;;;345.73;328.23;;;14.30;92.70;;;;;;5001651;28;20644;-67
2023/05/13 15:31:37;;;;;;;334.10;317.37;;;14.20;92.70;;;;;;5004624;28;20169;-65
2023/05/13 15:34:04;;;;;;;333.60;316.73;;;14.10;92.90;;;;;;5004481;28;20197;-68
2023/05/13 15:36:35;;;;;;;324.93;308.73;;;14.20;92.90;;;;;;5004447;28;20193;-64
2023/05/13 15:39:03;;;;;;;339.70;322.67;;;14.20;93.00;;;;;;5001120;28;20201;-67
2023/05/13 15:41:30;;;;;;;358.80;340.77;;;14.20;93.00;;;;;;5003401;28;20177;-70
2023/05/13 15:43:57;;;;;;;357.77;339.93;;;14.20;93.00;;;;;;5001548;28;20258;-68
2023/05/13 15:46:26;;;;;;;369.87;351.33;;;14.20;93.10;;;;;;5004468;28;20177;-65
2023/05/13 15:48:53;;;;;;;352.80;335.10;;;14.20;93.00;;;;;;5004531;28;20235;-65